createdAt,value
2022-08-01T00:00:48.943Z,18.10
2022-08-01T00:03:17.965Z,18.10
2022-08-01T00:05:45.615Z,18.10
2022-08-01T00:08:12.166Z,18.00
2022-08-01T00:10:38.736Z,18.00
2022-08-01T00:13:05.329Z,17.90
2022-08-01T00:15:32.599Z,18.00
2022-08-01T00:17:59.364Z,18.00
2022-08-01T00:20:26.034Z,17.90
2022-08-01T00:22:52.671Z,17.90
2022-08-01T00:25:19.227Z,17.90
2022-08-01T00:27:45.801Z,17.90
2022-08-01T00:30:15.067Z,17.90
2022-08-01T00:32:44.951Z,17.90
2022-08-01T00:35:11.920Z,17.90
2022-08-01T00:37:38.456Z,17.90
2022-08-01T00:40:06.846Z,17.80
2022-08-01T00:42:33.397Z,17.80
2022-08-01T00:45:00.001Z,17.80
2022-08-01T00:47:26.577Z,17.80
2022-08-01T00:49:53.160Z,17.80
2022-08-01T00:52:21.192Z,17.90
2022-08-01T00:54:48.550Z,17.70
2022-08-01T00:57:15.355Z,17.30
2022-08-01T00:59:42.013Z,17.20
2022-08-01T01:02:15.491Z,17.30
2022-08-01T01:04:43.351Z,17.50
2022-08-01T01:08:22.657Z,17.50
2022-08-01T01:10:58.217Z,17.50
2022-08-01T01:15:29.385Z,17.60
2022-08-01T01:18:15.021Z,17.70
2022-08-01T01:20:47.040Z,17.60
2022-08-01T01:24:58.599Z,17.60
2022-08-01T01:30:00.404Z,17.60
2022-08-01T01:32:46.145Z,17.60
2022-08-01T01:35:24.517Z,17.60
2022-08-01T01:37:58.535Z,17.60
2022-08-01T01:40:27.900Z,17.50
2022-08-01T01:42:57.056Z,17.40
2022-08-01T01:45:28.759Z,17.30
2022-08-01T01:47:57.698Z,17.40
2022-08-01T01:50:25.852Z,17.40
2022-08-01T01:52:55.615Z,17.50
2022-08-01T01:55:24.420Z,17.40
2022-08-01T01:57:53.747Z,17.40
2022-08-01T02:00:21.521Z,17.20
2022-08-01T02:02:50.067Z,16.90
2022-08-01T02:05:16.899Z,16.90
2022-08-01T02:07:45.624Z,16.70
2022-08-01T02:10:18.748Z,16.70
2022-08-01T02:12:50.160Z,16.50
2022-08-01T02:15:19.915Z,16.60
2022-08-01T02:17:50.949Z,16.80
2022-08-01T02:20:18.075Z,17.00
2022-08-01T02:23:18.254Z,17.00
2022-08-01T02:26:09.377Z,17.20
2022-08-01T02:28:49.670Z,17.20
2022-08-01T02:31:21.796Z,17.10
2022-08-01T02:34:00.217Z,17.20
2022-08-01T02:36:33.405Z,17.30
2022-08-01T02:39:06.767Z,17.40
2022-08-01T02:41:39.242Z,17.30
2022-08-01T02:44:11.390Z,17.10
2022-08-01T02:46:45.731Z,16.90
2022-08-01T02:49:14.237Z,16.80
2022-08-01T02:51:43.957Z,16.70
2022-08-01T02:54:12.341Z,16.60
2022-08-01T02:56:43.519Z,16.60
2022-08-01T02:59:17.326Z,16.60
2022-08-01T03:01:50.800Z,16.60
2022-08-01T03:04:19.811Z,16.70
2022-08-01T03:06:48.480Z,17.00
2022-08-01T03:09:16.958Z,17.20
2022-08-01T03:11:46.381Z,17.30
2022-08-01T03:14:14.748Z,17.40
2022-08-01T03:16:46.488Z,17.50
2022-08-01T03:19:14.691Z,17.50
2022-08-01T03:21:44.357Z,17.50
2022-08-01T03:24:13.342Z,17.50
2022-08-01T03:26:42.029Z,17.40
2022-08-01T03:29:24.999Z,17.30
2022-08-01T03:31:52.889Z,17.40
2022-08-01T03:34:21.918Z,17.40
2022-08-01T03:37:02.670Z,17.30
2022-08-01T03:39:36.438Z,17.30
2022-08-01T03:42:19.506Z,17.30
2022-08-01T03:45:13.497Z,17.50
2022-08-01T03:47:47.042Z,17.40
2022-08-01T03:50:16.941Z,17.40
2022-08-01T03:52:47.165Z,17.10
2022-08-01T03:55:17.289Z,16.80
2022-08-01T03:57:46.575Z,16.50
2022-08-01T04:00:18.499Z,16.30
2022-08-01T04:02:49.797Z,16.20
2022-08-01T04:05:17.675Z,16.20
2022-08-01T04:07:56.214Z,16.20
2022-08-01T04:10:26.299Z,16.20
2022-08-01T04:12:53.154Z,16.30
2022-08-01T04:15:20.495Z,16.40
2022-08-01T04:17:48.043Z,16.60
2022-08-01T04:20:15.892Z,16.70
2022-08-01T04:22:43.088Z,16.70
2022-08-01T04:25:24.817Z,16.80
2022-08-01T04:27:54.884Z,16.70
2022-08-01T04:30:29.985Z,16.70
2022-08-01T04:33:00.497Z,16.70
2022-08-01T04:36:02.935Z,16.70
2022-08-01T04:38:34.614Z,16.70
2022-08-01T04:41:09.137Z,16.90
2022-08-01T04:43:37.818Z,17.00
2022-08-01T04:46:08.772Z,17.30
2022-08-01T04:48:38.789Z,17.50
2022-08-01T04:51:13.883Z,17.90
2022-08-01T04:53:40.417Z,18.20
2022-08-01T04:56:07.140Z,18.30
2022-08-01T04:58:34.097Z,18.20
2022-08-01T05:01:00.998Z,18.40
2022-08-01T05:03:27.599Z,18.60
2022-08-01T05:05:54.631Z,18.40
2022-08-01T05:08:21.180Z,18.30
2022-08-01T05:10:47.714Z,18.10
2022-08-01T05:13:14.265Z,18.10
2022-08-01T05:15:41.317Z,18.10
2022-08-01T05:18:08.683Z,18.20
2022-08-01T05:20:35.532Z,18.20
2022-08-01T05:23:03.432Z,18.20
2022-08-01T05:25:56.142Z,18.20
2022-08-01T05:28:24.705Z,18.30
2022-08-01T05:30:54.879Z,18.40
2022-08-01T05:33:22.039Z,18.70
2022-08-01T05:35:49.463Z,18.80
2022-08-01T05:38:16.516Z,19.20
2022-08-01T05:40:43.126Z,19.20
2022-08-01T05:43:09.642Z,19.10
2022-08-01T05:45:36.196Z,19.10
2022-08-01T05:48:02.911Z,19.10
2022-08-01T05:50:29.430Z,19.10
2022-08-01T05:52:55.984Z,19.20
2022-08-01T05:55:22.596Z,19.30
2022-08-01T05:57:49.134Z,19.40
2022-08-01T06:00:16.384Z,19.40
2022-08-01T06:02:43.684Z,19.50
2022-08-01T06:05:13.275Z,19.70
2022-08-01T06:07:40.867Z,19.70
2022-08-01T06:10:08.875Z,19.80
2022-08-01T06:12:37.588Z,19.80
2022-08-01T06:15:06.346Z,19.80
2022-08-01T06:17:33.187Z,19.70
2022-08-01T06:20:00.091Z,19.70
2022-08-01T06:22:26.927Z,19.80
2022-08-01T06:24:53.454Z,19.80
2022-08-01T06:27:22.344Z,19.80
2022-08-01T06:29:51.295Z,19.90
2022-08-01T06:32:26.439Z,20.00
2022-08-01T06:34:55.108Z,19.90
2022-08-01T06:37:22.001Z,19.80
2022-08-01T06:39:49.644Z,19.80
2022-08-01T06:42:16.187Z,19.80
2022-08-01T06:44:42.732Z,19.90
2022-08-01T06:47:09.294Z,19.90
2022-08-01T06:49:35.928Z,20.20
2022-08-01T06:52:04.366Z,20.70
2022-08-01T06:54:31.133Z,20.90
2022-08-01T06:56:57.637Z,21.10
2022-08-01T06:59:24.201Z,21.40
2022-08-01T07:01:50.697Z,21.90
2022-08-01T07:04:17.222Z,21.90
2022-08-01T07:06:43.748Z,21.70
2022-08-01T07:09:14.204Z,21.40
2022-08-01T07:11:41.777Z,21.40
2022-08-01T07:14:08.327Z,21.60
2022-08-01T07:16:34.935Z,21.90
2022-08-01T07:19:01.490Z,22.10
2022-08-01T07:21:39.769Z,22.30
2022-08-01T07:24:14.567Z,22.30
2022-08-01T07:26:52.257Z,22.70
2022-08-01T07:29:19.540Z,22.70
2022-08-01T07:31:46.065Z,23.00
2022-08-01T07:34:12.652Z,23.50
2022-08-01T07:36:39.231Z,23.60
2022-08-01T07:39:05.757Z,23.80
2022-08-01T07:41:45.541Z,24.00
2022-08-01T07:44:32.340Z,24.20
2022-08-01T07:46:59.020Z,24.70
2022-08-01T07:49:25.576Z,25.10
2022-08-01T07:52:03.879Z,25.30
2022-08-01T07:54:33.430Z,25.60
2022-08-01T07:57:01.422Z,26.00
2022-08-01T07:59:27.966Z,26.30
2022-08-01T08:01:54.701Z,26.70
2022-08-01T08:04:21.289Z,26.90
2022-08-01T08:06:49.265Z,27.10
2022-08-01T08:09:16.250Z,27.30
2022-08-01T08:11:48.165Z,27.80
2022-08-01T08:14:16.097Z,28.30
2022-08-01T08:16:44.042Z,28.40
2022-08-01T08:19:11.264Z,28.60
2022-08-01T08:21:38.160Z,28.40
2022-08-01T08:24:20.098Z,28.10
2022-08-01T08:27:01.170Z,28.10
2022-08-01T08:29:30.097Z,28.20
2022-08-01T08:31:57.958Z,28.10
2022-08-01T08:34:25.692Z,28.10
2022-08-01T08:36:54.782Z,28.20
2022-08-01T08:39:22.548Z,28.40
2022-08-01T08:41:50.405Z,28.60
2022-08-01T08:44:18.190Z,28.80
2022-08-01T08:46:48.113Z,29.00
2022-08-01T08:49:27.117Z,29.10
2022-08-01T08:52:04.772Z,29.30
2022-08-01T08:54:32.841Z,29.40
2022-08-01T08:57:01.266Z,29.20
2022-08-01T08:59:28.845Z,29.00
2022-08-01T09:01:56.756Z,29.10
2022-08-01T09:04:26.072Z,29.10
2022-08-01T09:06:54.560Z,29.20
2022-08-01T09:09:21.388Z,29.20
2022-08-01T09:11:56.758Z,29.10
2022-08-01T09:14:30.313Z,29.00
2022-08-01T09:17:08.698Z,29.20
2022-08-01T09:19:59.258Z,29.40
2022-08-01T09:22:26.350Z,29.70
2022-08-01T09:25:53.591Z,29.90
2022-08-01T09:28:29.979Z,30.10
2022-08-01T09:31:06.547Z,30.30
2022-08-01T09:35:31.773Z,30.50
2022-08-01T09:38:22.623Z,30.70
2022-08-01T09:40:59.115Z,30.80
2022-08-01T09:43:32.278Z,30.70
2022-08-01T09:46:14.274Z,31.00
2022-08-01T09:49:01.587Z,31.10
2022-08-01T09:51:59.839Z,30.80
2022-08-01T09:54:34.527Z,30.20
2022-08-01T09:57:16.935Z,30.50
2022-08-01T09:59:58.187Z,30.50
2022-08-01T10:02:37.657Z,30.70
2022-08-01T10:05:08.332Z,30.50
2022-08-01T10:07:55.290Z,30.10
2022-08-01T10:10:29.141Z,30.00
2022-08-01T10:13:00.669Z,30.00
2022-08-01T10:15:37.236Z,29.80
2022-08-01T10:18:16.851Z,29.70
2022-08-01T10:20:53.188Z,29.50
2022-08-01T10:23:39.835Z,29.60
2022-08-01T10:26:10.535Z,30.10
2022-08-01T10:28:41.197Z,30.30
2022-08-01T10:31:12.499Z,30.70
2022-08-01T10:33:51.260Z,30.90
2022-08-01T10:36:23.482Z,31.40
2022-08-01T10:38:54.476Z,31.60
2022-08-01T10:41:22.527Z,31.40
2022-08-01T10:43:49.065Z,30.80
2022-08-01T10:46:18.472Z,30.30
2022-08-01T10:49:03.949Z,30.40
2022-08-01T10:51:52.107Z,30.70
2022-08-01T10:54:26.312Z,31.20
2022-08-01T10:56:53.557Z,31.60
2022-08-01T10:59:50.883Z,31.60
2022-08-01T11:02:33.716Z,31.00
2022-08-01T11:05:19.846Z,30.80
2022-08-01T11:07:57.364Z,30.90
2022-08-01T11:10:43.868Z,31.00
2022-08-01T11:13:11.546Z,31.20
2022-08-01T11:15:50.068Z,31.20
2022-08-01T11:19:20.362Z,30.90
2022-08-01T11:22:25.264Z,30.50
2022-08-01T11:24:57.096Z,30.80
2022-08-01T11:27:33.727Z,31.10
2022-08-01T11:30:25.678Z,31.50
2022-08-01T11:33:11.078Z,30.80
2022-08-01T11:36:17.530Z,30.40
2022-08-01T11:39:14.105Z,30.10
2022-08-01T11:41:42.282Z,30.10
2022-08-01T11:44:22.245Z,30.20
2022-08-01T11:47:10.718Z,30.20
2022-08-01T11:49:55.068Z,30.10
2022-08-01T11:52:32.689Z,30.10
2022-08-01T11:55:10.523Z,30.10
2022-08-01T11:57:39.017Z,30.00
2022-08-01T12:00:17.698Z,30.20
2022-08-01T12:02:59.022Z,30.50
2022-08-01T12:05:28.026Z,30.90
2022-08-01T12:07:58.523Z,31.00
2022-08-01T12:10:36.696Z,31.20
2022-08-01T12:13:13.858Z,31.30
2022-08-01T12:15:40.445Z,31.20
2022-08-01T12:18:10.030Z,31.20
2022-08-01T12:20:55.662Z,31.40
2022-08-01T12:23:23.696Z,31.50
2022-08-01T12:25:53.668Z,31.60
2022-08-01T12:28:20.235Z,31.80
2022-08-01T12:30:49.641Z,31.90
2022-08-01T12:33:20.694Z,32.20
2022-08-01T12:35:48.217Z,32.00
2022-08-01T12:38:18.699Z,32.00
2022-08-01T12:40:52.864Z,32.10
2022-08-01T12:43:27.551Z,32.10
2022-08-01T12:45:58.601Z,32.20
2022-08-01T12:48:26.768Z,31.70
2022-08-01T12:50:54.538Z,31.40
2022-08-01T12:53:22.376Z,31.20
2022-08-01T12:55:58.038Z,31.00
2022-08-01T12:58:33.136Z,30.80
2022-08-01T13:01:09.367Z,30.60
2022-08-01T13:03:36.084Z,30.60
2022-08-01T13:06:14.557Z,30.50
2022-08-01T13:08:41.166Z,30.60
2022-08-01T13:11:15.430Z,30.80
2022-08-01T13:13:52.952Z,30.70
2022-08-01T13:16:34.323Z,30.60
2022-08-01T13:19:09.715Z,30.80
2022-08-01T13:21:53.073Z,30.80
2022-08-01T13:24:30.522Z,30.70
2022-08-01T13:27:03.760Z,30.70
2022-08-01T13:29:44.597Z,30.60
2022-08-01T13:32:28.255Z,30.70
2022-08-01T13:35:09.643Z,30.70
2022-08-01T13:37:45.209Z,30.70
2022-08-01T13:40:12.169Z,31.00
2022-08-01T13:42:39.442Z,31.30
2022-08-01T13:45:14.682Z,31.40
2022-08-01T13:48:12.544Z,31.40
2022-08-01T13:50:50.327Z,31.50
2022-08-01T13:53:23.903Z,31.40
2022-08-01T13:55:50.467Z,31.50
2022-08-01T13:58:17.022Z,31.70
2022-08-01T14:00:43.974Z,31.90
2022-08-01T14:03:10.907Z,32.00
2022-08-01T14:05:38.071Z,32.00
2022-08-01T14:08:05.022Z,31.90
2022-08-01T14:10:31.625Z,31.80
2022-08-01T14:12:58.417Z,31.90
2022-08-01T14:15:37.737Z,32.00
2022-08-01T14:18:07.120Z,31.80
2022-08-01T14:20:38.911Z,31.50
2022-08-01T14:23:06.398Z,31.50
2022-08-01T14:26:03.727Z,31.40
2022-08-01T14:28:33.555Z,31.30
2022-08-01T14:31:00.388Z,31.30
2022-08-01T14:33:27.663Z,31.10
2022-08-01T14:36:05.392Z,31.10
2022-08-01T14:38:55.365Z,31.00
2022-08-01T14:41:30.821Z,30.90
2022-08-01T14:43:59.880Z,30.80
2022-08-01T14:46:26.426Z,31.00
2022-08-01T14:48:53.136Z,30.80
2022-08-01T14:51:19.758Z,30.70
2022-08-01T14:53:50.821Z,30.70
2022-08-01T14:56:19.788Z,30.60
2022-08-01T14:58:46.389Z,30.60
2022-08-01T15:01:13.183Z,30.50
2022-08-01T15:03:40.975Z,30.30
2022-08-01T15:06:09.794Z,30.20
2022-08-01T15:08:36.322Z,30.00
2022-08-01T15:11:02.876Z,29.90
2022-08-01T15:13:29.438Z,29.90
2022-08-01T15:16:00.046Z,29.70
2022-08-01T15:18:30.130Z,29.50
2022-08-01T15:20:57.915Z,29.40
2022-08-01T15:23:24.433Z,29.40
2022-08-01T15:25:50.970Z,29.30
2022-08-01T15:28:17.554Z,29.20
2022-08-01T15:30:45.351Z,29.10
2022-08-01T15:33:12.654Z,28.90
2022-08-01T15:35:39.218Z,28.80
2022-08-01T15:38:05.765Z,28.70
2022-08-01T15:40:34.530Z,28.60
2022-08-01T15:43:01.351Z,28.70
2022-08-01T15:48:24.398Z,28.60
2022-08-01T15:50:51.025Z,28.50
2022-08-01T15:53:17.554Z,28.40
2022-08-01T15:55:52.479Z,28.10
2022-08-01T15:58:19.655Z,28.00
2022-08-01T16:00:46.195Z,27.90
2022-08-01T16:03:12.729Z,27.80
2022-08-01T16:05:43.462Z,27.70
2022-08-01T16:08:14.063Z,27.70
2022-08-01T16:10:40.764Z,27.70
2022-08-01T16:13:08.058Z,27.80
2022-08-01T16:15:37.474Z,27.80
2022-08-01T16:18:06.849Z,27.60
2022-08-01T16:20:35.258Z,27.60
2022-08-01T16:23:02.276Z,27.70
2022-08-01T16:25:28.846Z,27.90
2022-08-01T16:27:55.394Z,27.90
2022-08-01T16:30:21.996Z,27.90
2022-08-01T16:32:51.129Z,27.90
2022-08-01T16:35:24.458Z,28.00
2022-08-01T16:37:54.127Z,28.00
2022-08-01T16:40:20.618Z,28.00
2022-08-01T16:42:49.050Z,28.00
2022-08-01T16:45:17.048Z,28.10
2022-08-01T16:47:43.576Z,28.00
2022-08-01T16:50:10.102Z,28.00
2022-08-01T16:52:42.107Z,27.80
2022-08-01T16:55:10.260Z,27.70
2022-08-01T16:57:37.719Z,27.60
2022-08-01T17:00:11.321Z,27.50
2022-08-01T17:02:48.088Z,27.40
2022-08-01T17:05:14.718Z,27.40
2022-08-01T17:07:41.334Z,27.40
2022-08-01T17:10:09.291Z,27.50
2022-08-01T17:12:35.785Z,27.40
2022-08-01T17:15:03.358Z,27.20
2022-08-01T17:17:29.903Z,27.20
2022-08-01T17:19:56.422Z,27.20
2022-08-01T17:22:22.944Z,27.20
2022-08-01T17:24:50.444Z,27.00
2022-08-01T17:27:17.664Z,26.90
2022-08-01T17:29:44.717Z,26.70
2022-08-01T17:32:13.215Z,26.60
2022-08-01T17:34:41.084Z,26.50
2022-08-01T17:37:08.748Z,26.30
2022-08-01T17:39:39.439Z,26.30
2022-08-01T17:42:08.398Z,26.40
2022-08-01T17:44:35.032Z,26.30
2022-08-01T17:47:01.931Z,26.30
2022-08-01T17:49:53.269Z,26.30
2022-08-01T17:52:21.158Z,26.30
2022-08-01T17:54:47.877Z,26.20
2022-08-01T17:57:14.384Z,26.00
2022-08-01T17:59:42.942Z,25.90
2022-08-01T18:02:09.426Z,25.70
2022-08-01T18:04:35.978Z,25.50
2022-08-01T18:07:11.417Z,25.30
2022-08-01T18:09:40.909Z,25.20
2022-08-01T18:12:13.803Z,25.00
2022-08-01T18:14:41.335Z,24.90
2022-08-01T18:17:11.562Z,24.80
2022-08-01T18:19:41.857Z,24.60
2022-08-01T18:22:25.708Z,24.60
2022-08-01T18:24:59.951Z,24.40
2022-08-01T18:28:16.506Z,24.20
2022-08-01T18:30:57.878Z,24.00
2022-08-01T18:33:24.433Z,23.80
2022-08-01T18:35:52.018Z,23.80
2022-08-01T18:38:19.422Z,23.90
2022-08-01T18:40:46.619Z,23.80
2022-08-01T18:43:13.167Z,23.50
2022-08-01T18:45:42.955Z,23.30
2022-08-01T18:48:10.730Z,23.10
2022-08-01T18:50:37.729Z,23.00
2022-08-01T18:53:04.330Z,23.00
2022-08-01T18:55:30.888Z,23.00
2022-08-01T18:57:58.268Z,22.80
2022-08-01T19:00:24.892Z,22.60
2022-08-01T19:02:52.346Z,22.40
2022-08-01T19:05:18.952Z,22.20
2022-08-01T19:08:06.259Z,22.10
2022-08-01T19:10:35.422Z,22.30
2022-08-01T19:13:02.266Z,22.20
2022-08-01T19:15:28.871Z,22.10
2022-08-01T19:17:55.405Z,21.90
2022-08-01T19:20:21.954Z,21.80
2022-08-01T19:22:48.455Z,21.70
2022-08-01T19:25:15.882Z,21.70
2022-08-01T19:27:47.861Z,21.60
2022-08-01T19:30:16.629Z,21.70
2022-08-01T19:32:45.813Z,21.60
2022-08-01T19:35:16.061Z,21.60
2022-08-01T19:37:45.133Z,21.50
2022-08-01T19:40:26.637Z,21.40
2022-08-01T19:42:56.222Z,21.20
2022-08-01T19:45:24.044Z,21.10
2022-08-01T19:47:56.267Z,21.00
2022-08-01T19:50:26.049Z,21.00
2022-08-01T19:52:54.936Z,21.00
2022-08-01T19:55:23.477Z,21.00
2022-08-01T19:58:17.331Z,21.10
2022-08-01T20:00:52.745Z,21.10
2022-08-01T20:03:21.189Z,20.90
2022-08-01T20:05:48.722Z,20.70
2022-08-01T20:08:16.572Z,20.70
2022-08-01T20:10:43.240Z,20.70
2022-08-01T20:13:11.144Z,20.90
2022-08-01T20:15:38.609Z,21.00
2022-08-01T20:18:06.558Z,21.30
2022-08-01T20:20:35.238Z,21.50
2022-08-01T20:23:02.686Z,21.50
2022-08-01T20:25:39.605Z,21.50
2022-08-01T20:28:10.330Z,21.40
2022-08-01T20:30:39.928Z,21.50
2022-08-01T20:33:11.455Z,21.50
2022-08-01T20:35:51.469Z,21.30
2022-08-01T20:38:27.822Z,21.30
2022-08-01T20:40:59.273Z,21.30
2022-08-01T20:43:26.759Z,21.40
2022-08-01T20:45:54.053Z,21.40
2022-08-01T20:48:21.207Z,21.40
2022-08-01T20:51:07.067Z,21.40
2022-08-01T20:53:39.878Z,21.20
2022-08-01T20:56:40.606Z,21.00
2022-08-01T20:59:39.988Z,21.10
2022-08-01T21:03:18.699Z,21.00
2022-08-01T21:05:55.801Z,21.10
2022-08-01T21:08:42.424Z,21.10
2022-08-01T21:11:18.882Z,21.10
2022-08-01T21:13:48.324Z,21.00
2022-08-01T21:16:25.040Z,20.80
2022-08-01T21:19:20.565Z,20.60
2022-08-01T21:22:13.935Z,20.60
2022-08-01T21:24:58.978Z,20.70
2022-08-01T21:27:33.793Z,20.90
2022-08-01T21:30:05.354Z,20.90
2022-08-01T21:32:36.227Z,20.90
2022-08-01T21:35:05.283Z,21.00
2022-08-01T21:37:35.523Z,21.00
2022-08-01T21:40:10.058Z,21.00
2022-08-01T21:42:39.484Z,20.40
2022-08-01T21:45:08.836Z,20.00
2022-08-01T21:47:36.540Z,19.70
2022-08-01T21:50:04.908Z,19.50
2022-08-01T21:52:49.004Z,19.50
2022-08-01T21:55:52.004Z,19.40
2022-08-01T21:59:09.623Z,19.50
2022-08-01T22:02:38.479Z,19.50
2022-08-01T22:05:11.508Z,19.30
2022-08-01T22:07:52.820Z,19.30
2022-08-01T22:10:20.621Z,19.20
2022-08-01T22:12:47.787Z,19.20
2022-08-01T22:15:14.559Z,19.20
2022-08-01T22:17:41.763Z,19.10
2022-08-01T22:20:09.450Z,19.00
2022-08-01T22:22:51.336Z,18.90
2022-08-01T22:25:21.239Z,18.80
2022-08-01T22:28:05.573Z,18.70
2022-08-01T22:30:41.261Z,18.70
2022-08-01T22:33:16.900Z,18.60
2022-08-01T22:35:49.981Z,18.70
2022-08-01T22:38:19.159Z,18.70
2022-08-01T22:40:53.665Z,18.80
2022-08-01T22:45:14.261Z,18.90
2022-08-01T22:48:24.057Z,19.00
2022-08-01T22:51:00.338Z,19.00
2022-08-01T22:53:58.114Z,19.00
2022-08-01T22:56:24.673Z,19.00
2022-08-01T22:58:56.149Z,18.90
2022-08-01T23:01:28.100Z,18.90
2022-08-01T23:03:58.463Z,18.90
2022-08-01T23:06:42.257Z,18.80
2022-08-01T23:09:09.725Z,18.90
2022-08-01T23:11:37.948Z,18.80
2022-08-01T23:14:05.245Z,18.90
2022-08-01T23:16:33.802Z,19.10
2022-08-01T23:19:01.737Z,19.30
2022-08-01T23:21:30.987Z,19.50
2022-08-01T23:24:00.295Z,19.60
2022-08-01T23:26:29.168Z,19.60
2022-08-01T23:28:58.114Z,19.70
2022-08-01T23:32:00.413Z,19.70
2022-08-01T23:34:30.318Z,19.80
2022-08-01T23:36:56.844Z,20.00
2022-08-01T23:39:23.384Z,20.10
2022-08-01T23:41:58.228Z,20.20
2022-08-01T23:44:26.377Z,20.10
2022-08-01T23:46:55.611Z,19.90
2022-08-01T23:49:22.189Z,19.90
2022-08-01T23:51:48.886Z,19.80
2022-08-01T23:54:15.503Z,19.60
2022-08-01T23:56:43.337Z,19.50
2022-08-01T23:59:12.323Z,19.40
